• Join FlightAware (Why Join?)
  • Login
  • US Flag 
10:16AM EDT


 

Airport Tracker/Info


-or-


 

Live Flight TrackerFlight Track Log ✈ EJA922 ✈ 15-Jul-2013 ✈ KFOK - KSTP

Flight Track Log - Related Links

Times and Time Zones

All times are in EDT time to prevent confusion due to time zone crossing. See the EJA922 flight status page for this flight to view local times or setup timezone preferences in your user account.

Time Position Orientation Groundspeed Altitude Reporting Facility
EDT Latitude Longitude Course Direction KTS MPH feet Rate Location/Type
10:17AM 40.8667 -72.6000 349° North 185 213 1,500  Level New York TRACON
10:18AM 40.9333 -72.6167 349° North 220 253 5,800 3,840 Climbing New York TRACON
10:19AM 40.9833 -72.6833 315° West 259 298 9,200 2,100 Climbing New York TRACON
10:20AM 41.0333 -72.7667 309° West 341 392 10,000 180 Climbing New York TRACON
10:22AM 41.1900 -73.0497 306° West 385 443 10,000 480 Level Boston Center
10:23AM 41.2769 -73.1278 326° Northwest 377 434 11,700 1,740 Climbing Boston Center
10:24AM 41.3642 -73.2089 325° Northwest 382 440 13,500 2,400 Climbing Boston Center
10:25AM 41.4619 -73.2128 358° North 347 399 16,600 2,820 Climbing Boston Center
10:26AM 41.5456 -73.1639 24° Northeast 331 381 19,200 2,820 Climbing Boston Center
10:27AM 41.6272 -73.1178 23° Northeast 325 374 22,300 2,640 Climbing Boston Center
10:28AM 41.7106 -73.1214 358° North 299 344 24,500 1,560 Climbing Boston Center
10:29AM 41.8000 -73.1364 353° North 299 344 25,500 960 Climbing Boston Center
10:30AM 41.9022 -73.1569 351° North 339 390 26,500 720 Climbing Boston Center
10:31AM 42.0144 -73.1750 353° North 378 435 27,000 300 Climbing Boston Center
10:32AM 42.1331 -73.2072 349° North 412 474 27,100 540 Climbing Boston Center
10:33AM 42.2261 -73.3289 316° Northwest 428 493 28,100 900 Climbing Boston Center
10:34AM 42.2683 -73.4894 290° West 431 496 29,000 960 Climbing Boston Center
10:35AM 42.3083 -73.6586 288° West 459 528 30,100 1,080 Climbing Boston Center
10:36AM 42.3439 -73.8444 285° West 476 548 31,200 1,200 Climbing Boston Center
10:37AM 42.3853 -74.0197 288° West 487 560 32,500 1,380 Climbing Boston Center
10:38AM 42.4222 -74.1894 286° West 487 560 34,000 1,380 Climbing Boston Center
10:39AM 42.4514 -74.3283 286° West 482 555 35,300 1,500 Climbing Boston Center
10:40AM 42.4919 -74.5153 286° West 477 549 37,000 1,680 Climbing Boston Center
10:41AM 42.5283 -74.6856 286° West 477 549 38,700 1,500 Climbing Boston Center
10:42AM 42.5644 -74.8531 286° West 477 549 40,000 600 Climbing Boston Center
10:43AM 42.6022 -75.0325 286° West 483 556 40,000  Level Boston Center
10:44AM 42.6436 -75.2206 287° West 502 578 40,000  Level Boston Center
10:45AM 42.6861 -75.4286 286° West 509 586 40,000  Level Boston Center
10:46AM 42.7269 -75.6228 286° West 522 601 40,000  Level Boston Center
10:48AM 42.7672 -75.8172 286° West 528 608 40,000  Level Boston Center
10:50AM 42.8500 -76.2167 286° West 530 610 40,000  Level Toronto Center
10:51AM 42.8833 -76.4000 284° West 530 610 40,000  Level Toronto Center
10:52AM 42.9167 -76.5833 284° West 520 598 40,000  Level Toronto Center
10:53AM 42.9667 -76.7833 289° West 520 598 40,000  Level Toronto Center
10:54AM 43.0000 -76.9667 284° West 520 598 40,000  Level Toronto Center
10:55AM 43.0333 -77.1667 283° West 520 598 40,000  Level Toronto Center
10:56AM 43.0667 -77.3500 284° West 520 598 40,000  Level Toronto Center
10:57AM 43.1167 -77.5333 291° West 530 610 40,000  Level Toronto Center
10:58AM 43.1667 -77.7333 289° West 520 598 40,000  Level Toronto Center
10:59AM 43.2000 -77.9167 284° West 520 598 40,000  Level Toronto Center
11:00AM 43.2333 -78.1167 283° West 520 598 40,000  Level Toronto Center
11:01AM 43.2667 -78.3000 284° West 520 598 40,000  Level Toronto Center
11:02AM 43.3167 -78.5167 288° West 520 598 40,000  Level Toronto Center
11:03AM 43.3500 -78.7000 284° West 520 598 40,000  Level Toronto Center
11:04AM 43.4000 -78.9000 289° West 520 598 40,000  Level Toronto Center
11:05AM 43.4333 -79.0833 284° West 520 598 40,000  Level Toronto Center
11:06AM 43.4667 -79.2833 283° West 520 598 40,000  Level Toronto Center
11:07AM 43.5000 -79.4667 284° West 520 598 40,000  Level Toronto Center
11:08AM 43.5333 -79.6500 284° West 520 598 40,000  Level Toronto Center
11:09AM 43.5667 -79.8667 282° West 530 610 40,000  Level Toronto Center
11:10AM 43.6167 -80.0500 291° West 520 598 40,000  Level Toronto Center
11:11AM 43.6500 -80.2333 284° West 520 598 40,000  Level Toronto Center
11:12AM 43.6833 -80.4333 283° West 520 598 40,000  Level Toronto Center
11:13AM 43.7167 -80.6167 284° West 510 587 40,000  Level Toronto Center
11:14AM 43.7333 -80.8333 276° West 520 598 40,000  Level Toronto Center
11:15AM 43.7667 -81.0167 284° West 520 598 40,000  Level Toronto Center
11:16AM 43.8167 -81.2000 291° West 520 598 40,000  Level Toronto Center
11:17AM 43.8500 -81.3833 284° West 520 598 40,000  Level Toronto Center
11:18AM 43.8833 -81.6000 282° West 520 598 40,000  Level Toronto Center
11:19AM 43.9167 -81.7833 284° West 520 598 40,000  Level Toronto Center
11:20AM 43.9333 -82.0000 276° West 520 598 40,000  Level Toronto Center
11:21AM 43.9667 -82.1833 284° West 520 598 40,000  Level Toronto Center
11:22AM 44.0389 -82.5167 287° West 522 601 40,000  Level Minneapolis Center
11:23AM 44.0700 -82.7119 283° West 520 598 40,000  Level Minneapolis Center
11:24AM 44.1006 -82.9083 282° West 520 598 40,000  Level Minneapolis Center
11:25AM 44.1319 -83.1042 283° West 520 598 40,000  Level Minneapolis Center
11:26AM 44.1678 -83.3383 282° West 518 596 40,000  Level Minneapolis Center
11:27AM 44.1967 -83.5342 282° West 517 595 40,000  Level Minneapolis Center
11:29AM 44.2278 -83.7281 283° West 515 593 40,000  Level Minneapolis Center
11:30AM 44.2572 -83.9225 282° West 514 592 40,000  Level Minneapolis Center
11:31AM 44.2858 -84.1175 282° West 513 590 40,000  Level Minneapolis Center
11:32AM 44.3197 -84.3503 282° West 511 588 40,000  Level Minneapolis Center
11:33AM 44.3478 -84.5450 281° West 511 588 40,000  Level Minneapolis Center
11:34AM 44.3750 -84.7369 281° West 506 582 40,000  Level Minneapolis Center
11:35AM 44.4014 -84.9300 281° West 507 583 40,000  Level Minneapolis Center
11:36AM 44.4278 -85.1231 281° West 505 581 40,000  Level Minneapolis Center
11:37AM 44.4542 -85.3167 281° West 507 583 40,000  Level Minneapolis Center
11:38AM 44.4792 -85.5117 280° West 508 585 40,000  Level Minneapolis Center
11:39AM 44.5092 -85.7450 280° West 506 582 40,000  Level Minneapolis Center
11:40AM 44.5356 -85.9419 281° West 509 586 40,000  Level Minneapolis Center
11:41AM 44.5608 -86.1389 280° West 506 582 40,000  Level Minneapolis Center
11:42AM 44.5842 -86.3356 280° West 506 582 40,000  Level Minneapolis Center
11:43AM 44.6097 -86.5300 281° West 505 581 40,000  Level Minneapolis Center
11:44AM 44.6336 -86.7244 280° West 504 580 40,000  Level Minneapolis Center
11:45AM 44.6575 -86.9183 280° West 505 581 40,000  Level Minneapolis Center
11:46AM 44.6850 -87.1519 279° West 505 581 40,000  Level Minneapolis Center
11:47AM 44.7078 -87.3467 279° West 506 582 40,000  Level Minneapolis Center
11:48AM 44.7292 -87.5403 279° West 503 579 40,000  Level Minneapolis Center
11:49AM 44.7514 -87.7361 279° West 506 582 40,000  Level Minneapolis Center
11:50AM 44.7725 -87.9306 279° West 506 582 40,000  Level Minneapolis Center
11:51AM 44.7939 -88.1242 279° West 504 580 40,000  Level Minneapolis Center
11:52AM 44.8164 -88.3272 279° West 505 581 40,000  Level Minneapolis Center
11:53AM 44.8403 -88.5553 278° West 507 583 40,000 -540 Level Minneapolis Center
11:54AM 44.8608 -88.7511 278° West 505 581 39,000 -1,200 Descending Minneapolis Center
11:55AM 44.8803 -88.9483 278° West 509 586 37,600 -1,260 Descending Minneapolis Center
11:56AM 44.8967 -89.1133 278° West 511 588 36,400 -1,500 Descending Minneapolis Center
11:57AM 44.9231 -89.3800 278° West 516 594 34,500 -1,620 Descending Minneapolis Center
11:59AM 44.9417 -89.5792 278° West 512 589 33,100 -1,380 Descending Minneapolis Center
12:00PM 44.9606 -89.7764 278° West 508 585 31,700 -1,500 Descending Minneapolis Center
12:01PM 44.9789 -89.9733 278° West 506 582 30,000 -840 Descending Minneapolis Center
12:02PM 44.9964 -90.1706 277° West 506 582 30,000  Level Minneapolis Center
12:03PM 45.0139 -90.3664 277° West 502 578 30,000  Level Minneapolis Center
12:04PM 45.0344 -90.6011 277° West 501 577 30,000 -660 Level Minneapolis Center
12:05PM 45.0539 -90.8364 277° West 502 578 28,500 -1,620 Descending Minneapolis Center
12:06PM 45.0675 -91.0244 276° West 501 577 26,700 -2,100 Descending Minneapolis Center
12:07PM 45.0853 -91.2164 278° West 497 572 24,200 -2,460 Descending Minneapolis Center
12:08PM 45.1000 -91.3997 277° West 481 554 21,700 -2,640 Descending Minneapolis Center
12:09PM 45.1100 -91.6092 274° West 456 525 18,800 -2,580 Descending Minneapolis Center
12:10PM 45.1142 -91.7772 272° West 438 504 16,400 -2,280 Descending Minneapolis Center
12:11PM 45.1197 -91.9433 273° West 424 488 14,100 -1,860 Descending Minneapolis Center
12:12PM 45.1236 -92.0847 272° West 361 415 12,200 -1,800 Descending Minneapolis Center
12:13PM 45.1267 -92.2308 272° West 311 358 10,100 -1,800 Descending Minneapolis Center
12:14PM 45.1292 -92.3400 272° West 282 325 8,600 -1,140 Descending Minneapolis Center
12:16PM 45.1308 -92.4636 271° West 263 303 7,800 -1,200 Descending Minneapolis Center
12:17PM 45.1053 -92.5644 250° West 276 318 6,100 -1,800 Descending Minneapolis Center
12:18PM 45.0731 -92.6592 244° Southwest 271 312 4,100 -1,500 Descending Minneapolis Center
12:19PM 45.0406 -92.7522 244° Southwest 265 305 3,000 -780 Descending Minneapolis Center
12:20PM 45.0150 -92.8281 245° Southwest 217 250 2,500 -300 Descending Minneapolis Center
12:21PM 44.9881 -92.9106 245° Southwest 196 226 2,500  Level Minneapolis Center
12:22PM 44.9858 -92.9897 268° West 199 229 2,500 -240 Level Minneapolis Center
12:23PM 44.9764 -93.0647 260° West 194 223 2,100 -780 Descending Minneapolis Center
12:24PM 44.9400 -93.0661 182° South 143 165 900 -1,200 Descending Minneapolis Center
12:26PM 44.9346 -93.0603 143° Southeast  Level Estimated